createdAt,value
2019-03-04T00:00:28.140Z,992.58
2019-03-04T00:01:28.148Z,992.51
2019-03-04T00:02:28.115Z,992.49
2019-03-04T00:03:28.115Z,992.51
2019-03-04T00:04:28.112Z,992.52
2019-03-04T00:05:28.087Z,992.53
2019-03-04T00:06:28.072Z,992.54
2019-03-04T00:07:28.070Z,992.53
2019-03-04T00:08:28.097Z,992.54
2019-03-04T00:09:28.057Z,992.58
2019-03-04T00:10:28.033Z,992.58
2019-03-04T00:11:28.020Z,992.47
2019-03-04T00:12:28.013Z,992.49
2019-03-04T00:13:28.026Z,992.43
2019-03-04T00:14:27.985Z,992.48
2019-03-04T00:15:27.992Z,992.33
2019-03-04T00:16:27.982Z,992.31
2019-03-04T00:17:27.957Z,992.36
2019-03-04T00:18:27.974Z,992.37
2019-03-04T00:19:27.946Z,992.30
2019-03-04T00:20:27.961Z,992.36
2019-03-04T00:21:27.922Z,992.28
2019-03-04T00:22:27.901Z,992.26
2019-03-04T00:23:27.914Z,992.29
2019-03-04T00:24:27.882Z,992.11
2019-03-04T00:25:27.887Z,992.21
2019-03-04T00:26:27.892Z,992.15
2019-03-04T00:27:27.846Z,992.10
2019-03-04T00:28:27.835Z,991.84
2019-03-04T00:29:27.823Z,991.82
2019-03-04T00:30:27.828Z,991.81
2019-03-04T00:31:27.820Z,991.72
2019-03-04T00:32:27.789Z,991.60
2019-03-04T00:33:27.777Z,991.67
2019-03-04T00:34:27.768Z,991.59
2019-03-04T00:35:27.757Z,991.55
2019-03-04T00:36:27.765Z,991.44
2019-03-04T00:37:27.736Z,991.41
2019-03-04T00:38:27.732Z,991.46
2019-03-04T00:39:27.723Z,991.37
2019-03-04T00:40:27.699Z,991.32
2019-03-04T00:41:27.713Z,991.27
2019-03-04T00:42:27.711Z,991.15
2019-03-04T00:43:27.703Z,991.21
2019-03-04T00:44:27.725Z,991.25
2019-03-04T00:45:27.667Z,991.02
2019-03-04T00:46:27.637Z,991.12
2019-03-04T00:47:27.656Z,990.96
2019-03-04T00:48:27.612Z,990.94
2019-03-04T00:49:27.608Z,990.88
2019-03-04T00:50:27.596Z,990.88
2019-03-04T00:51:27.624Z,990.84
2019-03-04T00:52:27.596Z,990.75
2019-03-04T00:53:27.569Z,990.76
2019-03-04T00:54:27.550Z,990.76
2019-03-04T00:55:27.542Z,990.80
2019-03-04T00:56:27.537Z,990.72
2019-03-04T00:57:27.540Z,990.86
2019-03-04T00:58:27.505Z,990.99
2019-03-04T00:59:27.500Z,991.09
2019-03-04T01:00:27.483Z,991.14
2019-03-04T01:01:27.477Z,991.21
2019-03-04T01:02:27.626Z,991.23
2019-03-04T01:03:27.463Z,991.17
2019-03-04T01:04:27.450Z,991.08
2019-03-04T01:05:27.452Z,991.00
2019-03-04T01:06:27.467Z,990.99
2019-03-04T01:07:27.408Z,991.15
2019-03-04T01:08:27.423Z,991.06
2019-03-04T01:09:27.395Z,991.26
2019-03-04T01:10:27.375Z,991.22
2019-03-04T01:11:27.369Z,991.12
2019-03-04T01:12:27.375Z,991.12
2019-03-04T01:13:27.341Z,991.05
2019-03-04T01:14:27.330Z,991.07
2019-03-04T01:15:27.320Z,991.15
2019-03-04T01:16:27.329Z,991.19
2019-03-04T01:17:27.318Z,991.25
2019-03-04T01:18:27.296Z,991.14
2019-03-04T01:19:27.275Z,991.09
2019-03-04T01:20:27.270Z,991.20
2019-03-04T01:21:27.257Z,991.26
2019-03-04T01:22:27.270Z,991.19
2019-03-04T01:23:27.267Z,991.33
2019-03-04T01:24:27.232Z,991.31
2019-03-04T01:25:27.211Z,991.18
2019-03-04T01:26:27.201Z,991.27
2019-03-04T01:27:27.218Z,991.18
2019-03-04T01:28:27.180Z,991.13
2019-03-04T01:29:27.166Z,991.07
2019-03-04T01:30:27.158Z,991.13
2019-03-04T01:31:27.148Z,991.15
2019-03-04T01:32:27.178Z,991.24
2019-03-04T01:33:27.124Z,991.30
2019-03-04T01:34:27.150Z,991.41
2019-03-04T01:35:27.102Z,991.40
2019-03-04T01:36:27.090Z,991.31
2019-03-04T01:37:27.081Z,991.48
2019-03-04T01:38:27.087Z,991.37
2019-03-04T01:39:27.067Z,991.33
2019-03-04T01:40:27.080Z,991.28
2019-03-04T01:41:27.037Z,991.30
2019-03-04T01:42:27.029Z,990.86
2019-03-04T01:43:27.035Z,990.79
2019-03-04T01:44:27.007Z,990.69
2019-03-04T01:45:26.993Z,990.62
2019-03-04T01:46:26.985Z,990.51
2019-03-04T01:47:26.969Z,990.45
2019-03-04T01:48:27.008Z,990.31
2019-03-04T01:49:26.953Z,990.36
2019-03-04T01:50:26.937Z,990.30
2019-03-04T01:51:27.068Z,990.42
2019-03-04T01:52:26.914Z,990.32
2019-03-04T01:53:26.938Z,990.01
2019-03-04T01:54:28.171Z,989.80
2019-03-04T01:55:26.892Z,989.88
2019-03-04T01:56:26.889Z,990.12
2019-03-04T01:57:26.867Z,990.20
2019-03-04T01:58:26.869Z,990.15
2019-03-04T01:59:26.840Z,990.11
2019-03-04T02:00:26.834Z,990.10
2019-03-04T02:01:26.857Z,990.03
2019-03-04T02:02:26.814Z,989.85
2019-03-04T02:03:26.821Z,989.62
2019-03-04T02:04:26.783Z,989.49
2019-03-04T02:05:26.772Z,989.50
2019-03-04T02:06:26.779Z,989.76
2019-03-04T02:07:26.753Z,990.02
2019-03-04T02:08:26.743Z,990.02
2019-03-04T02:09:26.745Z,990.01
2019-03-04T02:10:26.720Z,990.04
2019-03-04T02:11:26.707Z,990.13
2019-03-04T02:12:26.695Z,990.02
2019-03-04T02:13:26.695Z,989.94
2019-03-04T02:14:26.692Z,989.88
2019-03-04T02:15:26.665Z,989.73
2019-03-04T02:16:26.654Z,989.80
2019-03-04T02:17:26.650Z,989.78
2019-03-04T02:18:26.629Z,989.64
2019-03-04T02:19:26.639Z,989.60
2019-03-04T02:20:26.627Z,989.44
2019-03-04T02:21:26.596Z,989.44
2019-03-04T02:22:26.589Z,989.41
2019-03-04T02:23:26.584Z,989.45
2019-03-04T02:24:26.589Z,989.34
2019-03-04T02:25:26.593Z,989.28
2019-03-04T02:26:26.554Z,989.22
2019-03-04T02:27:26.534Z,989.25
2019-03-04T02:28:26.521Z,989.19
2019-03-04T02:29:26.528Z,989.09
2019-03-04T02:30:26.520Z,988.95
2019-03-04T02:31:26.490Z,988.98
2019-03-04T02:32:26.499Z,988.97
2019-03-04T02:33:26.467Z,989.13
2019-03-04T02:34:26.455Z,988.95
2019-03-04T02:35:26.466Z,989.11
2019-03-04T02:36:26.441Z,988.96
2019-03-04T02:37:26.429Z,988.98
2019-03-04T02:38:26.454Z,988.80
2019-03-04T02:39:26.413Z,988.79
2019-03-04T02:40:26.407Z,988.75
2019-03-04T02:41:26.381Z,988.59
2019-03-04T02:42:26.379Z,988.59
2019-03-04T02:43:26.362Z,988.53
2019-03-04T02:44:26.354Z,988.50
2019-03-04T02:45:26.383Z,988.47
2019-03-04T02:46:26.324Z,988.50
2019-03-04T02:47:26.316Z,988.41
2019-03-04T02:48:26.301Z,988.34
2019-03-04T02:49:26.295Z,988.40
2019-03-04T02:50:26.351Z,988.35
2019-03-04T02:51:26.269Z,988.26
2019-03-04T02:52:26.287Z,988.31
2019-03-04T02:53:26.254Z,988.34
2019-03-04T02:54:26.246Z,988.47
2019-03-04T02:55:26.233Z,988.32
2019-03-04T02:56:26.233Z,988.34
2019-03-04T02:57:26.210Z,988.42
2019-03-04T02:58:26.192Z,988.46
2019-03-04T02:59:26.202Z,988.45
2019-03-04T03:00:26.173Z,988.47
2019-03-04T03:01:35.085Z,988.41
2019-03-04T03:02:26.153Z,988.44
2019-03-04T03:03:26.140Z,988.49
2019-03-04T03:04:26.125Z,988.37
2019-03-04T03:05:26.114Z,988.41
2019-03-04T03:06:26.124Z,988.26
2019-03-04T03:07:26.093Z,988.46
2019-03-04T03:08:26.086Z,988.33
2019-03-04T03:09:26.078Z,988.38
2019-03-04T03:10:26.060Z,988.31
2019-03-04T03:11:26.072Z,988.29
2019-03-04T03:12:26.060Z,988.18
2019-03-04T03:13:26.050Z,988.13
2019-03-04T03:14:26.019Z,988.24
2019-03-04T03:15:26.012Z,988.18
2019-03-04T03:16:26.029Z,988.16
2019-03-04T03:17:25.985Z,988.15
2019-03-04T03:18:25.975Z,988.05
2019-03-04T03:19:25.962Z,987.82
2019-03-04T03:20:25.952Z,987.84
2019-03-04T03:21:25.963Z,987.73
2019-03-04T03:22:25.931Z,987.87
2019-03-04T03:23:25.919Z,987.85
2019-03-04T03:24:25.905Z,987.86
2019-03-04T03:25:25.894Z,987.77
2019-03-04T03:26:25.906Z,987.73
2019-03-04T03:27:25.888Z,987.51
2019-03-04T03:28:25.866Z,987.81
2019-03-04T03:29:25.856Z,987.63
2019-03-04T03:30:25.843Z,987.52
2019-03-04T03:31:25.869Z,987.46
2019-03-04T03:32:25.821Z,987.47
2019-03-04T03:33:25.837Z,987.44
2019-03-04T03:34:25.822Z,987.31
2019-03-04T03:35:25.789Z,987.21
2019-03-04T03:36:25.799Z,987.03
2019-03-04T03:37:25.764Z,987.09
2019-03-04T03:38:25.754Z,987.02
2019-03-04T03:39:25.749Z,986.98
2019-03-04T03:40:25.753Z,987.14
2019-03-04T03:41:25.742Z,987.02
2019-03-04T03:42:25.715Z,986.89
2019-03-04T03:43:25.710Z,986.74
2019-03-04T03:44:25.692Z,986.51
2019-03-04T03:45:25.678Z,986.60
2019-03-04T03:46:25.689Z,986.56
2019-03-04T03:47:25.682Z,986.40
2019-03-04T03:48:25.661Z,986.54
2019-03-04T03:49:25.646Z,986.60
2019-03-04T03:50:25.631Z,986.74
2019-03-04T03:51:25.633Z,986.77
2019-03-04T03:52:25.605Z,986.81
2019-03-04T03:53:25.597Z,986.85
2019-03-04T03:54:25.674Z,986.72
2019-03-04T03:55:25.571Z,986.85
2019-03-04T03:56:25.586Z,986.81
2019-03-04T03:57:25.548Z,986.77
2019-03-04T03:58:25.645Z,986.57
2019-03-04T03:59:25.528Z,986.33
2019-03-04T04:00:25.515Z,986.04
2019-03-04T04:01:25.522Z,986.17
2019-03-04T04:02:25.495Z,986.13
2019-03-04T04:03:25.487Z,985.77
2019-03-04T04:04:25.480Z,985.79
2019-03-04T04:05:25.478Z,985.67
2019-03-04T04:06:25.475Z,985.69
2019-03-04T04:07:25.438Z,985.90
2019-03-04T04:08:25.445Z,985.64
2019-03-04T04:09:25.416Z,985.55
2019-03-04T04:10:25.410Z,985.50
2019-03-04T04:11:25.427Z,985.65
2019-03-04T04:12:25.387Z,985.64
2019-03-04T04:13:25.373Z,985.48
2019-03-04T04:14:25.373Z,985.23
2019-03-04T04:15:25.356Z,985.30
2019-03-04T04:16:25.418Z,984.83
2019-03-04T04:17:25.330Z,985.06
2019-03-04T04:18:25.320Z,984.96
2019-03-04T04:19:25.308Z,985.30
2019-03-04T04:20:25.298Z,985.37
2019-03-04T04:21:25.296Z,985.58
2019-03-04T04:22:25.295Z,985.17
2019-03-04T04:23:25.282Z,985.60
2019-03-04T04:24:25.255Z,985.58
2019-03-04T04:25:25.251Z,985.72
2019-03-04T04:26:25.252Z,985.67
2019-03-04T04:27:25.222Z,985.45
2019-03-04T04:28:25.216Z,985.40
2019-03-04T04:29:25.239Z,985.61
2019-03-04T04:30:25.188Z,985.54
2019-03-04T04:31:25.201Z,985.58
2019-03-04T04:32:25.181Z,985.58
2019-03-04T04:33:25.162Z,985.78
2019-03-04T04:34:25.176Z,985.82
2019-03-04T04:35:25.136Z,985.80
2019-03-04T04:36:25.152Z,985.74
2019-03-04T04:37:25.117Z,985.63
2019-03-04T04:38:25.102Z,985.73
2019-03-04T04:39:25.096Z,986.10
2019-03-04T04:40:25.084Z,985.91
2019-03-04T04:41:25.075Z,985.92
2019-03-04T04:42:25.078Z,985.87
2019-03-04T04:43:25.070Z,985.85
2019-03-04T04:44:25.037Z,985.90
2019-03-04T04:45:25.027Z,985.75
2019-03-04T04:46:25.023Z,985.85
2019-03-04T04:47:25.035Z,985.88
2019-03-04T04:48:24.993Z,985.80
2019-03-04T04:49:24.985Z,985.76
2019-03-04T04:50:24.977Z,985.78
2019-03-04T04:51:24.961Z,985.71
2019-03-04T04:52:24.977Z,985.61
2019-03-04T04:53:24.940Z,985.51
2019-03-04T04:54:24.946Z,985.56
2019-03-04T04:55:24.928Z,985.59
2019-03-04T04:56:24.915Z,985.67
2019-03-04T04:57:24.971Z,985.51
2019-03-04T04:58:24.889Z,985.41
2019-03-04T04:59:24.872Z,985.40
2019-03-04T05:00:24.876Z,985.46
2019-03-04T05:01:24.849Z,985.58
2019-03-04T05:02:24.861Z,985.56
2019-03-04T05:03:24.827Z,985.56
2019-03-04T05:04:24.829Z,985.48
2019-03-04T05:05:24.821Z,985.43
2019-03-04T05:06:24.796Z,985.28
2019-03-04T05:07:24.827Z,985.23
2019-03-04T05:08:24.774Z,985.27
2019-03-04T05:09:24.764Z,985.27
2019-03-04T05:10:24.753Z,985.20
2019-03-04T05:11:24.749Z,985.08
2019-03-04T05:12:24.756Z,985.15
2019-03-04T05:13:24.718Z,985.24
2019-03-04T05:14:24.716Z,985.23
2019-03-04T05:15:24.702Z,985.29
2019-03-04T05:16:24.686Z,985.24
2019-03-04T05:17:24.700Z,985.29
2019-03-04T05:18:24.683Z,985.26
2019-03-04T05:19:32.192Z,985.29
2019-03-04T05:20:24.659Z,985.24
2019-03-04T05:21:24.636Z,985.25
2019-03-04T05:22:24.621Z,985.15
2019-03-04T05:23:24.614Z,985.11
2019-03-04T05:24:24.601Z,985.01
2019-03-04T05:25:24.607Z,984.99
2019-03-04T05:26:24.587Z,984.98
2019-03-04T05:27:24.576Z,985.04
2019-03-04T05:28:24.567Z,985.08
2019-03-04T05:29:24.547Z,985.09
2019-03-04T05:30:24.552Z,985.04
2019-03-04T05:31:24.536Z,985.16
2019-03-04T05:32:24.512Z,984.96
2019-03-04T05:33:24.504Z,985.06
2019-03-04T05:34:24.491Z,984.85
2019-03-04T05:35:24.499Z,984.91
2019-03-04T05:36:24.476Z,984.85
2019-03-04T05:37:24.487Z,984.85
2019-03-04T05:38:24.447Z,984.98
2019-03-04T05:39:24.443Z,984.96
2019-03-04T05:40:24.459Z,984.89
2019-03-04T05:41:24.413Z,984.94
2019-03-04T05:42:24.625Z,984.76
2019-03-04T05:43:24.394Z,984.93
2019-03-04T05:44:24.379Z,984.89
2019-03-04T05:45:24.394Z,984.94
2019-03-04T05:46:24.363Z,984.87
2019-03-04T05:47:24.348Z,984.69
2019-03-04T05:48:24.337Z,984.46
2019-03-04T05:49:24.327Z,984.45
2019-03-04T05:50:24.339Z,984.66
2019-03-04T05:51:24.314Z,984.54
2019-03-04T05:52:24.294Z,984.50
2019-03-04T05:53:24.285Z,984.48
2019-03-04T05:54:24.270Z,984.40
2019-03-04T05:55:24.279Z,984.44
2019-03-04T05:56:24.248Z,984.53
2019-03-04T05:57:24.247Z,984.35
2019-03-04T05:58:24.229Z,984.51
2019-03-04T05:59:24.214Z,984.20
2019-03-04T06:00:24.230Z,984.59
2019-03-04T06:01:24.194Z,984.71
2019-03-04T06:02:24.187Z,984.86
2019-03-04T06:03:24.177Z,984.86
2019-03-04T06:04:24.173Z,984.83
2019-03-04T06:05:24.171Z,984.76
2019-03-04T06:06:24.142Z,984.80
2019-03-04T06:07:24.139Z,984.88
2019-03-04T06:08:24.127Z,984.92
2019-03-04T06:09:24.108Z,984.96
2019-03-04T06:10:24.145Z,984.79
2019-03-04T06:11:24.084Z,984.68
2019-03-04T06:12:24.073Z,984.67
2019-03-04T06:13:24.064Z,984.52
2019-03-04T06:14:24.055Z,984.55
2019-03-04T06:15:24.061Z,984.56
2019-03-04T06:16:24.042Z,984.59
2019-03-04T06:17:24.019Z,984.62
2019-03-04T06:18:24.011Z,984.74
2019-03-04T06:19:24.001Z,984.72
2019-03-04T06:20:23.990Z,984.77
2019-03-04T06:21:24.008Z,984.70
2019-03-04T06:22:23.983Z,984.89
2019-03-04T06:23:23.960Z,985.53
2019-03-04T06:24:23.948Z,985.89
2019-03-04T06:25:23.937Z,985.61
2019-03-04T06:26:23.943Z,985.58
2019-03-04T06:27:23.917Z,985.52
2019-03-04T06:28:23.906Z,985.78
2019-03-04T06:29:23.890Z,985.80
2019-03-04T06:30:23.911Z,985.69
2019-03-04T06:31:23.889Z,986.02
2019-03-04T06:32:23.858Z,985.86
2019-03-04T06:33:23.849Z,985.79
2019-03-04T06:34:23.836Z,985.81
2019-03-04T06:35:23.826Z,985.69
2019-03-04T06:36:23.849Z,985.78
2019-03-04T06:37:23.814Z,985.51
2019-03-04T06:38:23.794Z,985.91
2019-03-04T06:39:23.804Z,985.79
2019-03-04T06:40:23.771Z,985.87
2019-03-04T06:41:23.800Z,985.78
2019-03-04T06:42:23.749Z,985.63
2019-03-04T06:43:23.757Z,985.72
2019-03-04T06:44:23.731Z,985.82
2019-03-04T06:45:23.717Z,985.74
2019-03-04T06:46:23.706Z,985.77
2019-03-04T06:47:23.716Z,985.93
2019-03-04T06:48:23.705Z,986.11
2019-03-04T06:49:24.263Z,986.19
2019-03-04T06:50:23.664Z,986.19
2019-03-04T06:51:23.651Z,986.15
2019-03-04T06:52:23.658Z,986.24
2019-03-04T06:53:23.633Z,986.11
2019-03-04T06:54:23.623Z,986.25
2019-03-04T06:55:23.612Z,986.05
2019-03-04T06:56:23.607Z,985.86
2019-03-04T06:57:28.436Z,985.63
2019-03-04T06:58:24.585Z,985.37
2019-03-04T06:59:23.565Z,985.54
2019-03-04T07:00:23.566Z,985.70
2019-03-04T07:01:23.545Z,985.65
2019-03-04T07:02:23.553Z,985.57
2019-03-04T07:03:31.057Z,985.47
2019-03-04T07:04:23.513Z,985.45
2019-03-04T07:05:23.506Z,985.39
2019-03-04T07:06:23.501Z,985.39
2019-03-04T07:07:23.501Z,985.35
2019-03-04T07:08:23.470Z,985.44
2019-03-04T07:09:23.458Z,985.46
2019-03-04T07:10:23.449Z,985.42
2019-03-04T07:11:23.440Z,985.47
2019-03-04T07:12:23.449Z,985.47
2019-03-04T07:13:23.434Z,985.56
2019-03-04T07:14:23.405Z,985.59
2019-03-04T07:15:23.397Z,985.58
2019-03-04T07:16:23.390Z,985.56
2019-03-04T07:17:23.408Z,985.40
2019-03-04T07:18:23.489Z,985.40
2019-03-04T07:19:23.353Z,985.51
2019-03-04T07:20:23.344Z,985.52
2019-03-04T07:21:23.332Z,985.49
2019-03-04T07:22:23.324Z,985.62
2019-03-04T07:23:23.328Z,985.60
2019-03-04T07:24:23.321Z,985.78
2019-03-04T07:25:23.286Z,986.17
2019-03-04T07:26:23.274Z,986.14
2019-03-04T07:27:23.268Z,986.26
2019-03-04T07:28:23.258Z,986.00
2019-03-04T07:29:23.268Z,986.18
2019-03-04T07:30:23.266Z,985.87
2019-03-04T07:31:23.224Z,985.84
2019-03-04T07:32:23.217Z,985.76
2019-03-04T07:33:23.200Z,985.97
2019-03-04T07:34:23.222Z,986.04
2019-03-04T07:35:23.211Z,986.02
2019-03-04T07:36:23.170Z,986.01
2019-03-04T07:37:23.165Z,986.16
2019-03-04T07:38:23.151Z,986.35
2019-03-04T07:39:23.160Z,986.23
2019-03-04T07:40:23.130Z,986.28
2019-03-04T07:41:23.116Z,986.09
2019-03-04T07:42:23.114Z,986.00
2019-03-04T07:43:23.093Z,985.99
2019-03-04T07:44:23.101Z,985.91
2019-03-04T07:45:23.073Z,985.81
2019-03-04T07:46:23.062Z,985.79
2019-03-04T07:47:23.051Z,985.82
2019-03-04T07:48:23.044Z,985.85
2019-03-04T07:49:23.059Z,985.74
2019-03-04T07:50:23.021Z,985.88
2019-03-04T07:51:23.009Z,985.88
2019-03-04T07:52:23.000Z,985.90
2019-03-04T07:53:23.008Z,985.96
2019-03-04T07:54:22.975Z,986.03
2019-03-04T07:55:23.045Z,986.10
2019-03-04T07:56:22.958Z,986.01
2019-03-04T07:57:22.944Z,986.00
2019-03-04T07:58:22.938Z,985.89
2019-03-04T07:59:22.923Z,985.90
2019-03-04T08:00:22.928Z,985.92
2019-03-04T08:01:22.905Z,985.97
2019-03-04T08:02:30.423Z,985.97
2019-03-04T08:03:22.884Z,986.09
2019-03-04T08:04:22.869Z,986.01
2019-03-04T08:05:22.894Z,986.19
2019-03-04T08:06:22.844Z,986.06
2019-03-04T08:07:22.878Z,986.21
2019-03-04T08:08:22.821Z,986.11
2019-03-04T08:09:22.830Z,986.22
2019-03-04T08:10:22.810Z,986.24
2019-03-04T08:11:22.809Z,986.17
2019-03-04T08:12:22.779Z,986.05
2019-03-04T08:13:22.775Z,986.17
2019-03-04T08:14:22.759Z,986.31
2019-03-04T08:15:22.752Z,986.28
2019-03-04T08:16:22.760Z,986.22
2019-03-04T08:17:22.727Z,986.25
2019-03-04T08:18:22.717Z,986.20
2019-03-04T08:19:22.706Z,986.27
2019-03-04T08:20:22.698Z,986.35
2019-03-04T08:21:22.705Z,986.30
2019-03-04T08:22:22.671Z,986.27
2019-03-04T08:23:22.661Z,986.23
2019-03-04T08:24:22.703Z,986.46
2019-03-04T08:25:22.641Z,986.32
2019-03-04T08:26:22.654Z,986.29
2019-03-04T08:27:22.619Z,986.28
2019-03-04T08:28:22.610Z,986.32
2019-03-04T08:29:22.595Z,986.35
2019-03-04T08:30:22.587Z,986.24
2019-03-04T08:31:22.575Z,986.46
2019-03-04T08:32:22.587Z,986.39
2019-03-04T08:33:22.577Z,986.28
2019-03-04T08:34:30.731Z,986.35
2019-03-04T08:35:23.531Z,986.32
2019-03-04T08:36:22.521Z,986.36
2019-03-04T08:37:22.531Z,986.46
2019-03-04T08:38:22.498Z,986.49
2019-03-04T08:39:23.049Z,986.50
2019-03-04T08:40:22.483Z,986.41
2019-03-04T08:41:22.467Z,986.55
2019-03-04T08:42:22.454Z,986.48
2019-03-04T08:43:22.463Z,986.44
2019-03-04T08:44:22.436Z,986.39
2019-03-04T08:45:22.423Z,986.44
2019-03-04T08:46:22.418Z,986.47
2019-03-04T08:47:22.400Z,986.38
2019-03-04T08:48:22.414Z,986.36
2019-03-04T08:49:22.380Z,986.29
2019-03-04T08:50:22.369Z,986.60
2019-03-04T08:51:22.360Z,986.16
2019-03-04T08:52:22.353Z,986.28
2019-03-04T08:53:22.364Z,986.20
2019-03-04T08:54:22.324Z,986.36
2019-03-04T08:55:22.318Z,986.22
2019-03-04T08:56:22.304Z,986.34
2019-03-04T08:57:22.294Z,986.39
2019-03-04T08:58:22.297Z,986.33
2019-03-04T08:59:22.281Z,986.35
2019-03-04T09:00:22.281Z,986.33
2019-03-04T09:01:22.250Z,986.25
2019-03-04T09:02:22.262Z,986.23
2019-03-04T09:03:22.259Z,986.23
2019-03-04T09:04:22.218Z,986.11
2019-03-04T09:05:22.206Z,986.47
2019-03-04T09:06:22.205Z,986.21
2019-03-04T09:07:22.192Z,986.38
2019-03-04T09:08:22.256Z,986.23
2019-03-04T09:09:22.185Z,986.40
2019-03-04T09:10:22.155Z,986.24
2019-03-04T09:11:22.267Z,986.31
2019-03-04T09:12:22.136Z,986.37
2019-03-04T09:13:22.126Z,986.44
2019-03-04T09:14:22.185Z,986.46
2019-03-04T09:15:22.137Z,986.46
2019-03-04T09:16:22.088Z,986.48
2019-03-04T09:17:22.077Z,986.40
2019-03-04T09:18:22.073Z,986.22
2019-03-04T09:19:22.061Z,986.39
2019-03-04T09:20:22.074Z,986.45
2019-03-04T09:21:22.041Z,986.43
2019-03-04T09:22:22.026Z,986.52
2019-03-04T09:23:22.027Z,986.61
2019-03-04T09:24:22.026Z,986.61
2019-03-04T09:25:30.035Z,986.56
2019-03-04T09:26:23.051Z,986.33
2019-03-04T09:27:22.013Z,986.39
2019-03-04T09:28:21.972Z,986.33
2019-03-04T09:29:21.952Z,986.33
2019-03-04T09:30:21.962Z,986.47
2019-03-04T09:31:21.992Z,986.52
2019-03-04T09:32:21.916Z,986.39
2019-03-04T09:33:21.916Z,986.39
2019-03-04T09:34:21.900Z,986.39
2019-03-04T09:35:21.883Z,986.41
2019-03-04T09:36:21.906Z,986.39
2019-03-04T09:37:21.865Z,986.41
2019-03-04T09:38:21.851Z,986.46
2019-03-04T09:39:21.842Z,986.44
2019-03-04T09:40:21.877Z,986.35
2019-03-04T09:41:21.839Z,986.48
2019-03-04T09:42:21.824Z,986.43
2019-03-04T09:43:21.807Z,986.46
2019-03-04T09:44:21.784Z,986.34
2019-03-04T09:45:21.778Z,986.40
2019-03-04T09:46:21.785Z,986.46
2019-03-04T09:47:21.781Z,986.42
2019-03-04T09:48:21.741Z,986.28
2019-03-04T09:49:21.738Z,986.42
2019-03-04T09:50:21.736Z,986.28
2019-03-04T09:51:24.664Z,986.21
2019-03-04T09:52:21.704Z,986.33
2019-03-04T09:53:21.689Z,986.25
2019-03-04T09:54:21.689Z,986.39
2019-03-04T09:55:29.204Z,986.32
2019-03-04T09:56:21.674Z,986.24
2019-03-04T09:57:21.644Z,986.35
2019-03-04T09:58:21.639Z,986.14
2019-03-04T09:59:21.623Z,986.12
2019-03-04T10:00:21.612Z,986.21
2019-03-04T10:01:21.598Z,986.17
2019-03-04T10:02:21.629Z,986.14
2019-03-04T10:03:21.596Z,986.27
2019-03-04T10:04:21.587Z,986.14
2019-03-04T10:05:21.571Z,986.13
2019-03-04T10:06:21.546Z,986.36
2019-03-04T10:07:21.556Z,986.08
2019-03-04T10:08:21.534Z,986.04
2019-03-04T10:09:21.515Z,985.96
2019-03-04T10:10:21.525Z,986.20
2019-03-04T10:11:21.497Z,986.10
2019-03-04T10:12:21.500Z,986.09
2019-03-04T10:13:21.470Z,985.89
2019-03-04T10:14:21.459Z,985.98
2019-03-04T10:15:21.449Z,985.92
2019-03-04T10:16:21.446Z,985.98
2019-03-04T10:17:21.435Z,985.87
2019-03-04T10:18:21.440Z,985.81
2019-03-04T10:19:28.954Z,985.88
2019-03-04T10:20:29.957Z,985.86
2019-03-04T10:21:28.933Z,985.85
2019-03-04T10:22:28.928Z,986.05
2019-03-04T10:23:31.324Z,985.73
2019-03-04T10:24:28.901Z,985.79
2019-03-04T10:25:28.884Z,985.74
2019-03-04T10:26:28.869Z,985.81
2019-03-04T10:27:29.869Z,985.82
2019-03-04T10:28:29.950Z,985.74
2019-03-04T10:29:29.861Z,985.67
2019-03-04T10:30:28.824Z,985.81
2019-03-04T10:31:30.088Z,985.77
2019-03-04T10:32:28.808Z,985.86
2019-03-04T10:33:30.216Z,985.76
2019-03-04T10:34:21.260Z,985.81
2019-03-04T10:35:29.798Z,985.68
2019-03-04T10:36:28.771Z,985.66
2019-03-04T10:37:28.740Z,985.85
2019-03-04T10:38:28.755Z,985.73
2019-03-04T10:39:30.746Z,985.68
2019-03-04T10:40:28.749Z,985.77
2019-03-04T10:41:29.747Z,985.84
2019-03-04T10:42:31.181Z,985.72
2019-03-04T10:43:29.950Z,985.94
2019-03-04T10:44:37.552Z,985.55
2019-03-04T10:51:12.303Z,985.60
2019-03-04T10:52:19.816Z,985.65
2019-03-04T10:53:19.796Z,985.70
2019-03-04T10:54:12.251Z,985.59
2019-03-04T10:55:12.285Z,985.88
2019-03-04T10:56:12.228Z,985.53
2019-03-04T10:57:12.218Z,985.64
2019-03-04T10:58:12.216Z,985.89
2019-03-04T10:59:12.203Z,985.60
2019-03-04T11:00:12.212Z,985.74
2019-03-04T11:01:12.197Z,985.65
2019-03-04T11:02:12.166Z,985.65
2019-03-04T11:03:12.190Z,985.45
2019-03-04T11:04:12.143Z,985.54
2019-03-04T11:05:12.173Z,985.58
2019-03-04T11:06:12.147Z,985.60
2019-03-04T11:07:12.126Z,985.64
2019-03-04T11:08:12.195Z,985.59
2019-03-04T11:09:12.088Z,985.62
2019-03-04T11:10:12.083Z,985.63
2019-03-04T11:11:12.100Z,985.73
2019-03-04T11:12:14.088Z,985.46
2019-03-04T11:13:12.055Z,985.59
2019-03-04T11:14:12.067Z,985.48
2019-03-04T11:15:12.026Z,985.66
2019-03-04T11:16:12.038Z,985.73
2019-03-04T11:17:12.020Z,985.67
2019-03-04T11:18:12.009Z,985.69
2019-03-04T11:19:11.990Z,985.72
2019-03-04T11:20:11.983Z,985.57
2019-03-04T11:21:12.000Z,985.62
2019-03-04T11:22:11.950Z,986.14
2019-03-04T11:23:11.948Z,985.71
2019-03-04T11:24:11.925Z,985.96
2019-03-04T11:25:11.932Z,985.87
2019-03-04T11:26:11.906Z,986.03
2019-03-04T11:27:11.930Z,986.01
2019-03-04T11:28:11.931Z,986.07
2019-03-04T11:29:13.367Z,985.95
2019-03-04T11:30:11.864Z,986.00
2019-03-04T11:31:11.856Z,985.93
2019-03-04T11:32:11.858Z,986.10
2019-03-04T11:33:11.832Z,985.99
2019-03-04T11:34:11.814Z,985.95
2019-03-04T11:35:11.808Z,986.08
2019-03-04T11:36:11.800Z,986.12
2019-03-04T11:37:11.811Z,986.03
2019-03-04T11:38:11.771Z,986.13
2019-03-04T11:39:11.763Z,986.14
2019-03-04T11:40:11.790Z,986.23
2019-03-04T11:41:11.749Z,986.35
2019-03-04T11:42:11.753Z,986.29
2019-03-04T11:43:11.719Z,986.40
2019-03-04T11:44:11.707Z,986.62
2019-03-04T11:45:11.709Z,986.69
2019-03-04T11:46:11.718Z,986.78
2019-03-04T11:47:11.692Z,986.62
2019-03-04T11:48:11.666Z,987.02
2019-03-04T11:49:11.720Z,987.40
2019-03-04T11:50:11.640Z,987.72
2019-03-04T11:51:11.651Z,987.22
2019-03-04T11:52:11.655Z,987.54
2019-03-04T11:53:11.610Z,987.41
2019-03-04T11:54:11.598Z,987.61
2019-03-04T11:55:11.586Z,987.63
2019-03-04T11:56:11.574Z,987.37
2019-03-04T11:57:11.569Z,987.51
2019-03-04T11:58:11.572Z,987.60
2019-03-04T11:59:11.545Z,987.56
2019-03-04T12:00:11.544Z,987.54
2019-03-04T12:01:11.517Z,987.65
2019-03-04T12:02:11.507Z,987.59
2019-03-04T12:03:11.562Z,987.72
2019-03-04T12:04:11.516Z,987.76
2019-03-04T12:05:11.481Z,987.85
2019-03-04T12:06:11.489Z,987.88
2019-03-04T12:07:11.462Z,988.13
2019-03-04T12:08:11.522Z,987.91
2019-03-04T12:09:11.436Z,988.08
2019-03-04T12:10:11.486Z,988.04
2019-03-04T12:11:11.416Z,987.94
2019-03-04T12:12:11.473Z,988.01
2019-03-04T12:13:11.414Z,987.91
2019-03-04T12:14:11.382Z,987.88
2019-03-04T12:15:11.375Z,987.97
2019-03-04T12:16:11.359Z,988.14
2019-03-04T12:17:11.345Z,988.10
2019-03-04T12:18:11.400Z,988.05
2019-03-04T12:19:11.321Z,987.93
2019-03-04T12:20:11.321Z,988.02
2019-03-04T12:21:11.300Z,988.08
2019-03-04T12:22:11.306Z,988.21
2019-03-04T12:23:11.290Z,988.14
2019-03-04T12:24:11.383Z,988.20
2019-03-04T12:25:11.260Z,988.13
2019-03-04T12:26:11.268Z,988.16
2019-03-04T12:27:11.248Z,988.16
2019-03-04T12:28:11.230Z,988.18
2019-03-04T12:29:11.237Z,988.21
2019-03-04T12:30:11.224Z,988.20
2019-03-04T12:31:11.194Z,988.26
2019-03-04T12:32:11.183Z,988.26
2019-03-04T12:33:11.177Z,988.31
2019-03-04T12:34:11.180Z,988.33